CYQW

North Battleford Airport

North Battleford, Saskatchewan, Canada
METAR CYQW 192000Z AUTO 29005KT 170V310 9SM BKN085 28/09 A3012 RMK SLP203 DENSITY ALT 3400FT
Observed Flight Rules
Jun-19 @ 20:00 UTC (14 minutes ago) Visual Flight Rules
Wind Visibility Clouds
290° at 5 knots 9 miles
  • Broken at 8,500' AGL
Temperatures Readings
Current 28°C / 82°F
Dewpoint 9°C / 48°F
Humidity 30%
Altimeter 30.12" Hg
Pressure 1020.3 hPa
Elevation 548
METAR CYQW 192000Z AUTO 29005KT 170V310 9SM BKN085 28/09 A3012 RMK SLP203 DENSITY ALT 3400FT
Observed Flight Rules
Jun-19 @ 20:00 UTC
(14 minutes ago)
VFR
Wind Visibility
290° at 5 knots 9 miles
Clouds
  • Broken at 8,500' AGL
Temperature Dewpoint
28°C / 82°F 9°C / 48°F
Humidity Altimeter Pressure
30% 30.12" Hg 1020.3 hPa